sensor_id;sensor_type;location;lat;lon;timestamp;P1;durP1;ratioP1;P2;durP2;ratioP2
12970;SDS011;6550;48.650;8.774;2023-06-10T00:01:26;4.20;;;3.90;;
12970;SDS011;6550;48.650;8.774;2023-06-10T00:03:54;4.73;;;4.33;;
12970;SDS011;6550;48.650;8.774;2023-06-10T00:06:21;8.00;;;4.33;;
12970;SDS011;6550;48.650;8.774;2023-06-10T00:08:51;5.85;;;4.40;;
12970;SDS011;6550;48.650;8.774;2023-06-10T00:11:17;6.13;;;4.50;;
12970;SDS011;6550;48.650;8.774;2023-06-10T00:13:44;4.87;;;4.00;;
12970;SDS011;6550;48.650;8.774;2023-06-10T00:16:13;4.60;;;4.20;;
12970;SDS011;6550;48.650;8.774;2023-06-10T00:18:40;4.00;;;3.70;;
12970;SDS011;6550;48.650;8.774;2023-06-10T00:21:08;5.13;;;4.60;;
12970;SDS011;6550;48.650;8.774;2023-06-10T00:23:37;5.07;;;4.57;;
12970;SDS011;6550;48.650;8.774;2023-06-10T00:26:04;6.07;;;3.87;;
12970;SDS011;6550;48.650;8.774;2023-06-10T00:28:31;4.50;;;4.10;;
12970;SDS011;6550;48.650;8.774;2023-06-10T00:30:58;5.13;;;4.73;;
12970;SDS011;6550;48.650;8.774;2023-06-10T00:33:25;5.00;;;4.60;;
12970;SDS011;6550;48.650;8.774;2023-06-10T00:35:52;5.37;;;4.93;;
12970;SDS011;6550;48.650;8.774;2023-06-10T00:38:19;4.90;;;4.38;;
12970;SDS011;6550;48.650;8.774;2023-06-10T00:40:48;4.83;;;4.33;;
12970;SDS011;6550;48.650;8.774;2023-06-10T00:43:15;5.10;;;4.57;;
12970;SDS011;6550;48.650;8.774;2023-06-10T00:45:42;10.27;;;4.27;;
12970;SDS011;6550;48.650;8.774;2023-06-10T00:48:09;4.20;;;3.90;;
12970;SDS011;6550;48.650;8.774;2023-06-10T00:50:38;5.25;;;4.75;;
12970;SDS011;6550;48.650;8.774;2023-06-10T00:53:07;5.13;;;4.63;;
12970;SDS011;6550;48.650;8.774;2023-06-10T00:55:35;6.43;;;4.67;;
12970;SDS011;6550;48.650;8.774;2023-06-10T00:58:03;4.87;;;4.47;;
12970;SDS011;6550;48.650;8.774;2023-06-10T01:00:33;5.10;;;4.60;;
12970;SDS011;6550;48.650;8.774;2023-06-10T01:03:00;4.67;;;4.27;;
12970;SDS011;6550;48.650;8.774;2023-06-10T01:05:27;5.50;;;4.60;;
12970;SDS011;6550;48.650;8.774;2023-06-10T01:08:00;6.00;;;4.75;;
12970;SDS011;6550;48.650;8.774;2023-06-10T01:10:43;4.80;;;4.30;;
12970;SDS011;6550;48.650;8.774;2023-06-10T01:13:20;4.37;;;4.07;;
12970;SDS011;6550;48.650;8.774;2023-06-10T01:15:50;5.50;;;4.13;;
12970;SDS011;6550;48.650;8.774;2023-06-10T01:18:17;7.80;;;4.30;;
12970;SDS011;6550;48.650;8.774;2023-06-10T01:20:44;4.88;;;4.38;;
12970;SDS011;6550;48.650;8.774;2023-06-10T01:23:13;4.67;;;4.20;;
12970;SDS011;6550;48.650;8.774;2023-06-10T01:26:04;6.53;;;3.97;;
12970;SDS011;6550;48.650;8.774;2023-06-10T01:28:41;5.80;;;4.20;;
12970;SDS011;6550;48.650;8.774;2023-06-10T01:33:51;4.53;;;4.13;;
12970;SDS011;6550;48.650;8.774;2023-06-10T01:36:23;7.63;;;4.13;;
12970;SDS011;6550;48.650;8.774;2023-06-10T01:38:53;6.00;;;4.30;;
12970;SDS011;6550;48.650;8.774;2023-06-10T01:41:21;5.43;;;4.00;;
12970;SDS011;6550;48.650;8.774;2023-06-10T01:43:49;4.67;;;4.13;;
12970;SDS011;6550;48.650;8.774;2023-06-10T01:46:15;4.43;;;4.03;;
12970;SDS011;6550;48.650;8.774;2023-06-10T01:48:46;5.23;;;4.40;;
12970;SDS011;6550;48.650;8.774;2023-06-10T01:51:14;5.32;;;4.82;;
12970;SDS011;6550;48.650;8.774;2023-06-10T01:53:43;4.10;;;3.80;;
12970;SDS011;6550;48.650;8.774;2023-06-10T01:56:12;4.90;;;4.50;;
12970;SDS011;6550;48.650;8.774;2023-06-10T01:58:45;4.77;;;4.33;;
12970;SDS011;6550;48.650;8.774;2023-06-10T02:01:12;5.73;;;4.53;;
12970;SDS011;6550;48.650;8.774;2023-06-10T02:03:39;6.40;;;5.23;;
12970;SDS011;6550;48.650;8.774;2023-06-10T02:06:06;4.87;;;4.37;;
12970;SDS011;6550;48.650;8.774;2023-06-10T02:08:33;4.75;;;3.90;;
12970;SDS011;6550;48.650;8.774;2023-06-10T02:11:00;4.53;;;4.13;;
12970;SDS011;6550;48.650;8.774;2023-06-10T02:13:26;4.60;;;4.30;;
12970;SDS011;6550;48.650;8.774;2023-06-10T02:15:55;5.30;;;4.80;;
12970;SDS011;6550;48.650;8.774;2023-06-10T02:18:25;5.03;;;4.17;;
12970;SDS011;6550;48.650;8.774;2023-06-10T02:20:53;6.22;;;4.50;;
12970;SDS011;6550;48.650;8.774;2023-06-10T02:23:20;4.83;;;4.37;;
12970;SDS011;6550;48.650;8.774;2023-06-10T02:25:47;4.10;;;3.80;;
12970;SDS011;6550;48.650;8.774;2023-06-10T02:28:14;5.07;;;4.30;;
12970;SDS011;6550;48.650;8.774;2023-06-10T02:30:41;4.73;;;4.33;;
12970;SDS011;6550;48.650;8.774;2023-06-10T02:33:08;4.73;;;4.33;;
12970;SDS011;6550;48.650;8.774;2023-06-10T02:35:38;6.17;;;4.57;;
12970;SDS011;6550;48.650;8.774;2023-06-10T02:38:05;6.07;;;4.23;;
12970;SDS011;6550;48.650;8.774;2023-06-10T02:40:32;8.63;;;4.43;;
12970;SDS011;6550;48.650;8.774;2023-06-10T02:42:58;5.20;;;4.30;;
12970;SDS011;6550;48.650;8.774;2023-06-10T02:45:25;6.23;;;4.57;;
12970;SDS011;6550;48.650;8.774;2023-06-10T02:47:55;4.83;;;4.30;;
12970;SDS011;6550;48.650;8.774;2023-06-10T02:50:22;4.70;;;4.30;;
12970;SDS011;6550;48.650;8.774;2023-06-10T02:52:48;4.93;;;4.40;;
12970;SDS011;6550;48.650;8.774;2023-06-10T02:55:17;4.97;;;4.57;;
12970;SDS011;6550;48.650;8.774;2023-06-10T02:57:44;5.23;;;4.17;;
12970;SDS011;6550;48.650;8.774;2023-06-10T03:00:13;4.83;;;4.43;;
12970;SDS011;6550;48.650;8.774;2023-06-10T03:02:40;4.33;;;3.93;;
12970;SDS011;6550;48.650;8.774;2023-06-10T03:05:08;5.03;;;4.20;;
12970;SDS011;6550;48.650;8.774;2023-06-10T03:07:40;8.20;;;4.57;;
12970;SDS011;6550;48.650;8.774;2023-06-10T03:10:07;5.20;;;4.67;;
12970;SDS011;6550;48.650;8.774;2023-06-10T03:12:34;5.23;;;4.73;;
12970;SDS011;6550;48.650;8.774;2023-06-10T03:15:03;4.30;;;3.90;;
12970;SDS011;6550;48.650;8.774;2023-06-10T03:17:31;7.30;;;4.40;;
12970;SDS011;6550;48.650;8.774;2023-06-10T03:19:58;5.10;;;4.60;;
12970;SDS011;6550;48.650;8.774;2023-06-10T03:22:27;6.50;;;4.67;;
12970;SDS011;6550;48.650;8.774;2023-06-10T03:24:59;4.83;;;3.90;;
12970;SDS011;6550;48.650;8.774;2023-06-10T03:27:26;5.03;;;4.63;;
12970;SDS011;6550;48.650;8.774;2023-06-10T03:29:56;5.20;;;4.37;;
12970;SDS011;6550;48.650;8.774;2023-06-10T03:32:23;6.37;;;4.80;;
12970;SDS011;6550;48.650;8.774;2023-06-10T03:34:52;4.83;;;4.17;;
12970;SDS011;6550;48.650;8.774;2023-06-10T03:37:25;5.13;;;4.63;;
12970;SDS011;6550;48.650;8.774;2023-06-10T03:39:54;5.63;;;4.40;;
12970;SDS011;6550;48.650;8.774;2023-06-10T03:42:21;4.73;;;4.33;;
12970;SDS011;6550;48.650;8.774;2023-06-10T03:44:48;4.67;;;4.10;;
12970;SDS011;6550;48.650;8.774;2023-06-10T03:47:15;5.00;;;4.27;;
12970;SDS011;6550;48.650;8.774;2023-06-10T03:49:42;4.83;;;4.33;;
12970;SDS011;6550;48.650;8.774;2023-06-10T03:52:11;5.53;;;4.93;;
12970;SDS011;6550;48.650;8.774;2023-06-10T03:54:40;5.90;;;4.65;;
12970;SDS011;6550;48.650;8.774;2023-06-10T03:57:09;6.53;;;4.43;;
12970;SDS011;6550;48.650;8.774;2023-06-10T03:59:39;4.90;;;4.50;;
12970;SDS011;6550;48.650;8.774;2023-06-10T04:02:08;5.13;;;4.70;;
12970;SDS011;6550;48.650;8.774;2023-06-10T04:04:35;7.83;;;5.00;;
12970;SDS011;6550;48.650;8.774;2023-06-10T04:07:06;10.23;;;4.97;;
12970;SDS011;6550;48.650;8.774;2023-06-10T04:09:35;4.57;;;4.17;;
12970;SDS011;6550;48.650;8.774;2023-06-10T04:12:02;7.28;;;5.20;;
12970;SDS011;6550;48.650;8.774;2023-06-10T04:14:34;5.67;;;4.80;;
12970;SDS011;6550;48.650;8.774;2023-06-10T04:17:04;5.17;;;4.77;;
12970;SDS011;6550;48.650;8.774;2023-06-10T04:19:34;6.87;;;4.97;;
12970;SDS011;6550;48.650;8.774;2023-06-10T04:22:01;4.70;;;4.20;;
12970;SDS011;6550;48.650;8.774;2023-06-10T04:24:29;7.97;;;4.60;;
12970;SDS011;6550;48.650;8.774;2023-06-10T04:26:59;7.23;;;4.80;;
12970;SDS011;6550;48.650;8.774;2023-06-10T04:29:26;5.90;;;4.83;;
12970;SDS011;6550;48.650;8.774;2023-06-10T04:31:56;5.47;;;4.90;;
12970;SDS011;6550;48.650;8.774;2023-06-10T04:34:23;5.17;;;4.60;;
12970;SDS011;6550;48.650;8.774;2023-06-10T04:36:51;4.73;;;4.30;;
12970;SDS011;6550;48.650;8.774;2023-06-10T04:39:20;8.00;;;4.33;;
12970;SDS011;6550;48.650;8.774;2023-06-10T04:41:48;5.50;;;4.67;;
12970;SDS011;6550;48.650;8.774;2023-06-10T04:44:15;5.40;;;4.85;;
12970;SDS011;6550;48.650;8.774;2023-06-10T04:46:42;7.67;;;4.80;;
12970;SDS011;6550;48.650;8.774;2023-06-10T04:49:09;7.40;;;4.30;;
12970;SDS011;6550;48.650;8.774;2023-06-10T04:51:36;5.90;;;5.00;;
12970;SDS011;6550;48.650;8.774;2023-06-10T04:54:04;5.17;;;4.57;;
12970;SDS011;6550;48.650;8.774;2023-06-10T04:56:35;7.70;;;4.63;;
12970;SDS011;6550;48.650;8.774;2023-06-10T04:59:05;6.93;;;5.88;;
12970;SDS011;6550;48.650;8.774;2023-06-10T05:01:32;6.97;;;4.60;;
12970;SDS011;6550;48.650;8.774;2023-06-10T05:03:59;4.60;;;4.20;;
12970;SDS011;6550;48.650;8.774;2023-06-10T05:06:25;5.87;;;4.90;;
12970;SDS011;6550;48.650;8.774;2023-06-10T05:08:55;6.10;;;5.10;;
12970;SDS011;6550;48.650;8.774;2023-06-10T05:11:23;5.37;;;4.87;;
12970;SDS011;6550;48.650;8.774;2023-06-10T05:13:50;5.07;;;4.60;;
12970;SDS011;6550;48.650;8.774;2023-06-10T05:16:17;5.77;;;5.17;;
12970;SDS011;6550;48.650;8.774;2023-06-10T05:18:47;6.50;;;4.40;;
12970;SDS011;6550;48.650;8.774;2023-06-10T05:21:14;8.57;;;5.23;;
12970;SDS011;6550;48.650;8.774;2023-06-10T05:23:46;5.40;;;5.00;;
12970;SDS011;6550;48.650;8.774;2023-06-10T05:26:13;6.10;;;5.50;;
12970;SDS011;6550;48.650;8.774;2023-06-10T05:28:40;6.57;;;5.25;;
12970;SDS011;6550;48.650;8.774;2023-06-10T05:31:11;6.43;;;5.23;;
12970;SDS011;6550;48.650;8.774;2023-06-10T05:33:39;5.63;;;5.03;;
12970;SDS011;6550;48.650;8.774;2023-06-10T05:36:08;5.87;;;5.43;;
12970;SDS011;6550;48.650;8.774;2023-06-10T05:38:35;6.40;;;4.67;;
12970;SDS011;6550;48.650;8.774;2023-06-10T05:41:01;6.30;;;5.63;;
12970;SDS011;6550;48.650;8.774;2023-06-10T05:43:30;6.20;;;5.67;;
12970;SDS011;6550;48.650;8.774;2023-06-10T05:45:59;5.87;;;5.37;;
12970;SDS011;6550;48.650;8.774;2023-06-10T05:48:26;6.93;;;5.28;;
12970;SDS011;6550;48.650;8.774;2023-06-10T05:50:53;5.97;;;5.37;;
12970;SDS011;6550;48.650;8.774;2023-06-10T05:53:20;7.77;;;5.37;;
12970;SDS011;6550;48.650;8.774;2023-06-10T05:55:49;7.03;;;5.87;;
12970;SDS011;6550;48.650;8.774;2023-06-10T05:58:17;6.10;;;5.50;;
12970;SDS011;6550;48.650;8.774;2023-06-10T06:00:44;5.93;;;5.43;;
12970;SDS011;6550;48.650;8.774;2023-06-10T06:03:15;5.67;;;5.10;;
12970;SDS011;6550;48.650;8.774;2023-06-10T06:05:43;5.57;;;5.13;;
12970;SDS011;6550;48.650;8.774;2023-06-10T06:08:10;6.77;;;5.30;;
12970;SDS011;6550;48.650;8.774;2023-06-10T06:10:45;5.47;;;5.00;;
12970;SDS011;6550;48.650;8.774;2023-06-10T06:13:12;6.30;;;5.53;;
12970;SDS011;6550;48.650;8.774;2023-06-10T06:15:38;6.07;;;5.50;;
12970;SDS011;6550;48.650;8.774;2023-06-10T06:18:05;7.63;;;5.77;;
12970;SDS011;6550;48.650;8.774;2023-06-10T06:20:32;6.60;;;6.00;;
12970;SDS011;6550;48.650;8.774;2023-06-10T06:23:01;5.80;;;5.20;;
12970;SDS011;6550;48.650;8.774;2023-06-10T06:25:30;6.53;;;5.40;;
12970;SDS011;6550;48.650;8.774;2023-06-10T06:27:57;6.43;;;5.53;;
12970;SDS011;6550;48.650;8.774;2023-06-10T06:30:26;5.85;;;5.35;;
12970;SDS011;6550;48.650;8.774;2023-06-10T06:32:53;7.03;;;6.07;;
12970;SDS011;6550;48.650;8.774;2023-06-10T06:35:21;5.10;;;4.60;;
12970;SDS011;6550;48.650;8.774;2023-06-10T06:37:48;10.13;;;5.63;;
12970;SDS011;6550;48.650;8.774;2023-06-10T06:40:15;10.10;;;5.70;;
12970;SDS011;6550;48.650;8.774;2023-06-10T06:42:44;6.23;;;5.63;;
12970;SDS011;6550;48.650;8.774;2023-06-10T06:45:11;6.03;;;5.50;;
12970;SDS011;6550;48.650;8.774;2023-06-10T06:47:38;8.10;;;5.23;;
12970;SDS011;6550;48.650;8.774;2023-06-10T06:50:05;6.50;;;5.10;;
12970;SDS011;6550;48.650;8.774;2023-06-10T06:52:34;5.97;;;5.37;;
12970;SDS011;6550;48.650;8.774;2023-06-10T06:55:06;5.47;;;4.97;;
12970;SDS011;6550;48.650;8.774;2023-06-10T06:57:36;4.73;;;4.33;;
12970;SDS011;6550;48.650;8.774;2023-06-10T07:00:03;5.70;;;4.85;;
12970;SDS011;6550;48.650;8.774;2023-06-10T07:02:30;4.97;;;3.90;;
12970;SDS011;6550;48.650;8.774;2023-06-10T07:04:59;4.63;;;4.23;;
12970;SDS011;6550;48.650;8.774;2023-06-10T07:07:29;3.63;;;3.30;;
12970;SDS011;6550;48.650;8.774;2023-06-10T07:09:58;4.00;;;3.70;;
12970;SDS011;6550;48.650;8.774;2023-06-10T07:12:25;3.83;;;3.53;;
12970;SDS011;6550;48.650;8.774;2023-06-10T07:14:52;4.47;;;4.07;;
12970;SDS011;6550;48.650;8.774;2023-06-10T07:17:19;4.63;;;4.23;;
12970;SDS011;6550;48.650;8.774;2023-06-10T07:19:46;5.43;;;4.18;;
12970;SDS011;6550;48.650;8.774;2023-06-10T07:22:15;3.80;;;3.50;;
12970;SDS011;6550;48.650;8.774;2023-06-10T07:24:44;4.40;;;4.00;;
12970;SDS011;6550;48.650;8.774;2023-06-10T07:27:10;4.30;;;3.90;;
12970;SDS011;6550;48.650;8.774;2023-06-10T07:29:40;4.35;;;4.00;;
12970;SDS011;6550;48.650;8.774;2023-06-10T07:32:07;4.63;;;4.23;;
12970;SDS011;6550;48.650;8.774;2023-06-10T07:34:34;4.50;;;4.20;;
12970;SDS011;6550;48.650;8.774;2023-06-10T07:37:01;4.30;;;3.90;;
12970;SDS011;6550;48.650;8.774;2023-06-10T07:39:28;4.03;;;3.67;;
12970;SDS011;6550;48.650;8.774;2023-06-10T07:41:54;4.03;;;3.73;;
12970;SDS011;6550;48.650;8.774;2023-06-10T07:44:23;4.30;;;3.90;;
12970;SDS011;6550;48.650;8.774;2023-06-10T07:46:52;4.37;;;3.97;;
12970;SDS011;6550;48.650;8.774;2023-06-10T07:49:22;4.10;;;3.80;;
12970;SDS011;6550;48.650;8.774;2023-06-10T07:51:49;4.37;;;3.97;;
12970;SDS011;6550;48.650;8.774;2023-06-10T07:54:16;4.00;;;3.70;;
12970;SDS011;6550;48.650;8.774;2023-06-10T07:56:43;3.70;;;3.40;;
12970;SDS011;6550;48.650;8.774;2023-06-10T07:59:15;4.30;;;3.90;;
12970;SDS011;6550;48.650;8.774;2023-06-10T08:01:45;3.97;;;3.63;;
12970;SDS011;6550;48.650;8.774;2023-06-10T08:04:12;4.00;;;3.60;;
12970;SDS011;6550;48.650;8.774;2023-06-10T08:06:39;3.80;;;3.50;;
12970;SDS011;6550;48.650;8.774;2023-06-10T08:09:11;3.73;;;3.43;;
12970;SDS011;6550;48.650;8.774;2023-06-10T08:11:40;3.73;;;3.47;;
12970;SDS011;6550;48.650;8.774;2023-06-10T08:14:07;3.67;;;3.33;;
12970;SDS011;6550;48.650;8.774;2023-06-10T08:16:34;3.90;;;3.60;;
12970;SDS011;6550;48.650;8.774;2023-06-10T08:19:01;3.60;;;3.30;;
12970;SDS011;6550;48.650;8.774;2023-06-10T08:21:28;3.87;;;3.50;;
12970;SDS011;6550;48.650;8.774;2023-06-10T08:23:55;4.37;;;3.63;;
12970;SDS011;6550;48.650;8.774;2023-06-10T08:26:24;3.80;;;3.03;;
12970;SDS011;6550;48.650;8.774;2023-06-10T08:28:50;3.20;;;3.00;;
12970;SDS011;6550;48.650;8.774;2023-06-10T08:31:17;3.40;;;3.10;;
12970;SDS011;6550;48.650;8.774;2023-06-10T08:33:47;3.90;;;3.50;;
12970;SDS011;6550;48.650;8.774;2023-06-10T08:36:19;2.83;;;2.63;;
12970;SDS011;6550;48.650;8.774;2023-06-10T08:38:45;3.30;;;3.00;;
12970;SDS011;6550;48.650;8.774;2023-06-10T08:41:16;3.50;;;3.20;;
12970;SDS011;6550;48.650;8.774;2023-06-10T08:43:45;2.83;;;2.63;;
12970;SDS011;6550;48.650;8.774;2023-06-10T08:46:17;4.37;;;3.17;;
12970;SDS011;6550;48.650;8.774;2023-06-10T08:48:44;3.43;;;3.13;;
12970;SDS011;6550;48.650;8.774;2023-06-10T08:51:16;3.40;;;3.10;;
12970;SDS011;6550;48.650;8.774;2023-06-10T08:53:48;3.40;;;3.20;;
12970;SDS011;6550;48.650;8.774;2023-06-10T08:56:19;2.90;;;2.70;;
12970;SDS011;6550;48.650;8.774;2023-06-10T08:58:49;3.53;;;3.13;;
12970;SDS011;6550;48.650;8.774;2023-06-10T09:01:19;4.33;;;2.90;;
12970;SDS011;6550;48.650;8.774;2023-06-10T09:03:47;3.43;;;3.13;;
12970;SDS011;6550;48.650;8.774;2023-06-10T09:06:15;3.30;;;3.00;;
12970;SDS011;6550;48.650;8.774;2023-06-10T09:08:42;3.33;;;2.90;;
12970;SDS011;6550;48.650;8.774;2023-06-10T09:11:10;2.90;;;2.60;;
12970;SDS011;6550;48.650;8.774;2023-06-10T09:13:36;3.23;;;2.93;;
12970;SDS011;6550;48.650;8.774;2023-06-10T09:16:03;4.83;;;3.40;;
12970;SDS011;6550;48.650;8.774;2023-06-10T09:18:30;3.13;;;2.93;;
12970;SDS011;6550;48.650;8.774;2023-06-10T09:21:00;3.40;;;3.10;;
12970;SDS011;6550;48.650;8.774;2023-06-10T09:23:27;3.47;;;3.17;;
12970;SDS011;6550;48.650;8.774;2023-06-10T09:25:57;4.97;;;3.13;;
12970;SDS011;6550;48.650;8.774;2023-06-10T09:28:25;4.87;;;3.13;;
12970;SDS011;6550;48.650;8.774;2023-06-10T09:31:04;4.30;;;3.10;;
12970;SDS011;6550;48.650;8.774;2023-06-10T09:33:36;5.20;;;3.20;;
12970;SDS011;6550;48.650;8.774;2023-06-10T09:36:07;2.67;;;2.47;;
12970;SDS011;6550;48.650;8.774;2023-06-10T09:38:34;3.57;;;3.20;;
12970;SDS011;6550;48.650;8.774;2023-06-10T09:41:04;3.63;;;3.33;;
12970;SDS011;6550;48.650;8.774;2023-06-10T09:43:43;3.17;;;2.97;;
12970;SDS011;6550;48.650;8.774;2023-06-10T09:46:18;2.90;;;2.70;;
12970;SDS011;6550;48.650;8.774;2023-06-10T09:48:46;3.47;;;3.17;;
12970;SDS011;6550;48.650;8.774;2023-06-10T09:51:14;3.23;;;3.00;;
12970;SDS011;6550;48.650;8.774;2023-06-10T09:53:47;4.27;;;3.10;;
12970;SDS011;6550;48.650;8.774;2023-06-10T09:56:18;3.70;;;3.40;;
12970;SDS011;6550;48.650;8.774;2023-06-10T09:58:49;4.23;;;3.40;;
12970;SDS011;6550;48.650;8.774;2023-06-10T10:01:20;2.93;;;2.73;;
12970;SDS011;6550;48.650;8.774;2023-06-10T10:03:50;2.97;;;2.77;;
12970;SDS011;6550;48.650;8.774;2023-06-10T10:06:18;3.20;;;2.60;;
12970;SDS011;6550;48.650;8.774;2023-06-10T10:08:49;3.23;;;2.93;;
12970;SDS011;6550;48.650;8.774;2023-06-10T10:11:17;3.03;;;2.83;;
12970;SDS011;6550;48.650;8.774;2023-06-10T10:13:47;2.97;;;2.77;;
12970;SDS011;6550;48.650;8.774;2023-06-10T10:16:49;3.53;;;2.50;;
12970;SDS011;6550;48.650;8.774;2023-06-10T10:19:15;4.83;;;3.03;;
12970;SDS011;6550;48.650;8.774;2023-06-10T10:21:52;3.20;;;3.00;;
12970;SDS011;6550;48.650;8.774;2023-06-10T10:24:26;3.00;;;2.80;;
12970;SDS011;6550;48.650;8.774;2023-06-10T10:27:02;3.27;;;2.83;;
12970;SDS011;6550;48.650;8.774;2023-06-10T10:29:39;2.90;;;2.70;;
12970;SDS011;6550;48.650;8.774;2023-06-10T10:32:06;4.40;;;2.87;;
12970;SDS011;6550;48.650;8.774;2023-06-10T10:34:49;3.10;;;2.90;;
12970;SDS011;6550;48.650;8.774;2023-06-10T10:37:21;2.70;;;2.50;;
12970;SDS011;6550;48.650;8.774;2023-06-10T10:39:48;3.23;;;3.00;;
12970;SDS011;6550;48.650;8.774;2023-06-10T10:42:16;3.00;;;2.80;;
12970;SDS011;6550;48.650;8.774;2023-06-10T10:44:44;2.87;;;2.60;;
12970;SDS011;6550;48.650;8.774;2023-06-10T10:47:13;3.30;;;3.00;;
12970;SDS011;6550;48.650;8.774;2023-06-10T10:49:43;2.93;;;2.73;;
12970;SDS011;6550;48.650;8.774;2023-06-10T10:52:11;2.93;;;2.73;;
12970;SDS011;6550;48.650;8.774;2023-06-10T10:54:41;3.97;;;3.10;;
12970;SDS011;6550;48.650;8.774;2023-06-10T11:05:05;2.90;;;2.70;;
12970;SDS011;6550;48.650;8.774;2023-06-10T11:07:34;3.27;;;2.90;;
12970;SDS011;6550;48.650;8.774;2023-06-10T11:10:04;4.00;;;3.10;;
12970;SDS011;6550;48.650;8.774;2023-06-10T11:15:12;2.87;;;2.67;;
12970;SDS011;6550;48.650;8.774;2023-06-10T11:26:09;3.60;;;3.30;;
12970;SDS011;6550;48.650;8.774;2023-06-10T11:33:55;3.50;;;2.73;;
12970;SDS011;6550;48.650;8.774;2023-06-10T11:36:23;3.17;;;2.87;;
12970;SDS011;6550;48.650;8.774;2023-06-10T11:39:01;3.10;;;2.80;;
12970;SDS011;6550;48.650;8.774;2023-06-10T11:41:30;2.70;;;2.50;;
12970;SDS011;6550;48.650;8.774;2023-06-10T11:44:03;3.07;;;2.87;;
12970;SDS011;6550;48.650;8.774;2023-06-10T11:46:33;3.27;;;3.00;;
12970;SDS011;6550;48.650;8.774;2023-06-10T11:49:03;4.67;;;2.83;;
12970;SDS011;6550;48.650;8.774;2023-06-10T11:51:35;4.80;;;2.50;;
12970;SDS011;6550;48.650;8.774;2023-06-10T11:54:04;3.17;;;2.80;;
12970;SDS011;6550;48.650;8.774;2023-06-10T11:56:31;4.73;;;2.63;;
12970;SDS011;6550;48.650;8.774;2023-06-10T11:59:04;4.70;;;3.17;;
12970;SDS011;6550;48.650;8.774;2023-06-10T12:01:33;3.07;;;2.87;;
12970;SDS011;6550;48.650;8.774;2023-06-10T12:04:09;4.07;;;3.50;;
12970;SDS011;6550;48.650;8.774;2023-06-10T12:06:41;3.50;;;3.17;;
12970;SDS011;6550;48.650;8.774;2023-06-10T12:09:19;2.93;;;2.73;;
12970;SDS011;6550;48.650;8.774;2023-06-10T12:12:00;2.90;;;2.70;;
12970;SDS011;6550;48.650;8.774;2023-06-10T12:20:01;2.70;;;2.50;;
12970;SDS011;6550;48.650;8.774;2023-06-10T12:22:38;4.27;;;2.50;;
12970;SDS011;6550;48.650;8.774;2023-06-10T12:25:09;2.90;;;2.70;;
12970;SDS011;6550;48.650;8.774;2023-06-10T12:27:38;3.37;;;3.00;;
12970;SDS011;6550;48.650;8.774;2023-06-10T12:30:07;2.90;;;2.70;;
12970;SDS011;6550;48.650;8.774;2023-06-10T12:32:44;2.87;;;2.67;;
12970;SDS011;6550;48.650;8.774;2023-06-10T12:35:12;4.17;;;2.80;;
12970;SDS011;6550;48.650;8.774;2023-06-10T12:37:54;3.27;;;2.97;;
12970;SDS011;6550;48.650;8.774;2023-06-10T12:40:27;3.83;;;2.80;;
12970;SDS011;6550;48.650;8.774;2023-06-10T12:42:55;3.27;;;2.97;;
12970;SDS011;6550;48.650;8.774;2023-06-10T12:48:04;3.13;;;2.93;;
12970;SDS011;6550;48.650;8.774;2023-06-10T12:50:43;3.67;;;3.00;;
12970;SDS011;6550;48.650;8.774;2023-06-10T12:53:11;4.53;;;3.00;;
12970;SDS011;6550;48.650;8.774;2023-06-10T12:55:38;3.10;;;2.80;;
12970;SDS011;6550;48.650;8.774;2023-06-10T12:58:05;4.87;;;2.93;;
12970;SDS011;6550;48.650;8.774;2023-06-10T13:00:34;2.97;;;2.73;;
12970;SDS011;6550;48.650;8.774;2023-06-10T13:03:03;2.90;;;2.70;;
12970;SDS011;6550;48.650;8.774;2023-06-10T13:05:32;2.80;;;2.60;;
12970;SDS011;6550;48.650;8.774;2023-06-10T13:08:08;4.53;;;3.00;;
12970;SDS011;6550;48.650;8.774;2023-06-10T13:10:37;3.53;;;3.23;;
12970;SDS011;6550;48.650;8.774;2023-06-10T13:13:08;3.67;;;3.37;;
12970;SDS011;6550;48.650;8.774;2023-06-10T13:15:36;4.10;;;3.00;;
12970;SDS011;6550;48.650;8.774;2023-06-10T13:18:09;3.27;;;2.97;;
12970;SDS011;6550;48.650;8.774;2023-06-10T13:20:36;2.97;;;2.73;;
12970;SDS011;6550;48.650;8.774;2023-06-10T13:23:02;4.47;;;3.40;;
12970;SDS011;6550;48.650;8.774;2023-06-10T13:25:29;3.40;;;3.00;;
12970;SDS011;6550;48.650;8.774;2023-06-10T13:27:58;3.37;;;2.83;;
12970;SDS011;6550;48.650;8.774;2023-06-10T13:30:25;3.20;;;2.90;;
12970;SDS011;6550;48.650;8.774;2023-06-10T13:32:52;2.80;;;2.60;;
12970;SDS011;6550;48.650;8.774;2023-06-10T13:35:19;3.33;;;3.03;;
12970;SDS011;6550;48.650;8.774;2023-06-10T13:37:48;3.23;;;2.93;;
12970;SDS011;6550;48.650;8.774;2023-06-10T13:40:17;4.77;;;3.00;;
12970;SDS011;6550;48.650;8.774;2023-06-10T13:42:46;4.97;;;3.00;;
12970;SDS011;6550;48.650;8.774;2023-06-10T13:45:17;2.60;;;2.40;;
12970;SDS011;6550;48.650;8.774;2023-06-10T13:47:46;3.90;;;2.53;;
12970;SDS011;6550;48.650;8.774;2023-06-10T13:50:13;9.53;;;2.90;;
12970;SDS011;6550;48.650;8.774;2023-06-10T13:52:39;10.13;;;3.17;;
12970;SDS011;6550;48.650;8.774;2023-06-10T13:55:08;5.67;;;2.90;;
12970;SDS011;6550;48.650;8.774;2023-06-10T13:57:38;4.40;;;2.80;;
12970;SDS011;6550;48.650;8.774;2023-06-10T14:00:07;3.30;;;2.90;;
12970;SDS011;6550;48.650;8.774;2023-06-10T14:02:37;6.13;;;2.90;;
12970;SDS011;6550;48.650;8.774;2023-06-10T14:05:05;3.10;;;2.83;;
12970;SDS011;6550;48.650;8.774;2023-06-10T14:07:32;3.20;;;2.90;;
12970;SDS011;6550;48.650;8.774;2023-06-10T14:10:00;4.53;;;3.20;;
12970;SDS011;6550;48.650;8.774;2023-06-10T14:12:29;3.10;;;2.70;;
12970;SDS011;6550;48.650;8.774;2023-06-10T14:14:56;2.37;;;2.23;;
12970;SDS011;6550;48.650;8.774;2023-06-10T14:17:23;3.00;;;2.80;;
12970;SDS011;6550;48.650;8.774;2023-06-10T14:19:50;3.07;;;2.87;;
12970;SDS011;6550;48.650;8.774;2023-06-10T14:22:16;3.00;;;2.80;;
12970;SDS011;6550;48.650;8.774;2023-06-10T14:24:46;2.77;;;2.57;;
12970;SDS011;6550;48.650;8.774;2023-06-10T14:27:15;2.57;;;2.37;;
12970;SDS011;6550;48.650;8.774;2023-06-10T14:29:42;3.10;;;2.80;;
12970;SDS011;6550;48.650;8.774;2023-06-10T14:32:10;5.97;;;2.60;;
12970;SDS011;6550;48.650;8.774;2023-06-10T14:34:36;3.10;;;2.90;;
12970;SDS011;6550;48.650;8.774;2023-06-10T14:37:07;4.67;;;2.63;;
12970;SDS011;6550;48.650;8.774;2023-06-10T14:39:36;3.33;;;2.30;;
12970;SDS011;6550;48.650;8.774;2023-06-10T14:42:03;2.63;;;2.43;;
12970;SDS011;6550;48.650;8.774;2023-06-10T14:44:31;3.07;;;2.77;;
12970;SDS011;6550;48.650;8.774;2023-06-10T14:47:00;2.90;;;2.70;;
12970;SDS011;6550;48.650;8.774;2023-06-10T14:49:29;3.20;;;2.90;;
12970;SDS011;6550;48.650;8.774;2023-06-10T14:51:56;3.00;;;2.70;;
12970;SDS011;6550;48.650;8.774;2023-06-10T14:54:26;2.93;;;2.70;;
12970;SDS011;6550;48.650;8.774;2023-06-10T14:56:55;3.97;;;2.70;;
12970;SDS011;6550;48.650;8.774;2023-06-10T14:59:22;3.10;;;2.40;;
12970;SDS011;6550;48.650;8.774;2023-06-10T15:01:48;2.47;;;2.27;;
12970;SDS011;6550;48.650;8.774;2023-06-10T15:04:15;2.80;;;2.40;;
12970;SDS011;6550;48.650;8.774;2023-06-10T15:06:44;2.30;;;2.20;;
12970;SDS011;6550;48.650;8.774;2023-06-10T15:09:10;2.60;;;2.40;;
12970;SDS011;6550;48.650;8.774;2023-06-10T15:11:37;2.80;;;2.60;;
12970;SDS011;6550;48.650;8.774;2023-06-10T15:14:04;2.23;;;2.10;;
12970;SDS011;6550;48.650;8.774;2023-06-10T15:16:31;2.60;;;2.40;;
12970;SDS011;6550;48.650;8.774;2023-06-10T15:18:58;3.93;;;2.50;;
12970;SDS011;6550;48.650;8.774;2023-06-10T15:21:25;3.40;;;2.50;;
12970;SDS011;6550;48.650;8.774;2023-06-10T15:23:52;4.70;;;2.47;;
12970;SDS011;6550;48.650;8.774;2023-06-10T15:26:19;2.43;;;2.23;;
12970;SDS011;6550;48.650;8.774;2023-06-10T15:28:48;2.60;;;2.40;;
12970;SDS011;6550;48.650;8.774;2023-06-10T15:31:17;2.73;;;2.53;;
12970;SDS011;6550;48.650;8.774;2023-06-10T15:33:44;2.47;;;2.27;;
12970;SDS011;6550;48.650;8.774;2023-06-10T15:36:15;2.60;;;2.40;;
12970;SDS011;6550;48.650;8.774;2023-06-10T15:38:42;2.70;;;2.50;;
12970;SDS011;6550;48.650;8.774;2023-06-10T15:41:12;3.03;;;2.63;;
12970;SDS011;6550;48.650;8.774;2023-06-10T15:43:39;3.60;;;2.20;;
12970;SDS011;6550;48.650;8.774;2023-06-10T15:46:08;2.80;;;2.30;;